Time;durP1;ratioP1;P1;durP2;ratioP2;P2;SDS_P1;SDS_P2;PMS_P1;PMS_P2;Temp;Humidity;BMP_temperature;BMP_pressure;BME280_temperature;BME280_humidity;BME280_pressure;Samples;Min_cycle;Max_cycle;Signal;HPM_P1;HPM_P2
2020/12/26 00:01:39;;;;;;;0.95;0.50;;;0.90;74.10;;;;;;6257311;23;20023;-86
2020/12/26 00:04:05;;;;;;;0.63;0.40;;;0.90;73.90;;;;;;6230388;23;20000;-85
2020/12/26 00:06:33;;;;;;;0.20;0.20;;;0.90;73.90;;;;;;6257470;23;20468;-85
2020/12/26 00:08:58;;;;;;;0.22;0.22;;;0.90;74.20;;;;;;6232029;23;20000;-84
2020/12/26 00:11:24;;;;;;;0.70;0.25;;;0.90;74.40;;;;;;6258232;23;19996;-84
2020/12/26 00:13:50;;;;;;;0.35;0.20;;;0.90;74.30;;;;;;6244075;23;20004;-83
2020/12/26 00:16:18;;;;;;;1.95;0.40;;;0.90;74.20;;;;;;6269272;23;20011;-86
2020/12/26 00:18:47;;;;;;;0.70;0.25;;;0.90;74.40;;;;;;6259112;23;20000;-84
2020/12/26 00:21:15;;;;;;;0.73;0.20;;;0.90;74.30;;;;;;6229294;23;20008;-84
2020/12/26 00:23:41;;;;;;;0.28;0.28;;;0.90;74.50;;;;;;6227056;23;20031;-85
2020/12/26 00:26:07;;;;;;;0.32;0.20;;;0.90;74.50;;;;;;6229864;23;20072;-85
2020/12/26 00:28:33;;;;;;;0.50;0.50;;;0.90;74.40;;;;;;6229529;23;20001;-84
2020/12/26 00:31:02;;;;;;;0.20;0.20;;;0.90;74.10;;;;;;6230834;23;20143;-87
2020/12/26 00:33:41;;;;;;;0.60;0.55;;;0.90;73.70;;;;;;6231830;23;20015;-85
2020/12/26 00:36:08;;;;;;;1.10;0.55;;;0.90;74.00;;;;;;6230616;23;20011;-86
2020/12/26 00:38:34;;;;;;;2.15;0.80;;;1.00;73.10;;;;;;6256860;23;20023;-85
2020/12/26 00:41:00;;;;;;;0.60;0.55;;;1.00;73.90;;;;;;6231255;23;20099;-85
2020/12/26 00:43:25;;;;;;;1.42;1.02;;;1.00;75.10;;;;;;6266117;23;20004;-84
2020/12/26 00:45:51;;;;;;;1.90;1.60;;;1.00;76.50;;;;;;6236949;23;20000;-86
2020/12/26 00:48:17;;;;;;;4.65;1.67;;;0.90;79.00;;;;;;6255898;23;19996;-86
2020/12/26 00:50:43;;;;;;;2.65;1.75;;;0.90;81.50;;;;;;6228133;23;20075;-85
2020/12/26 00:53:09;;;;;;;4.75;1.73;;;0.90;82.90;;;;;;6227530;23;20004;-86
2020/12/26 00:55:34;;;;;;;2.20;1.70;;;0.90;84.30;;;;;;6228164;23;20035;-85
2020/12/26 00:58:00;;;;;;;2.20;2.00;;;1.00;85.50;;;;;;6253756;23;20058;-86
2020/12/26 01:00:26;;;;;;;3.42;1.80;;;0.90;86.70;;;;;;6254889;23;20420;-85
2020/12/26 01:02:51;;;;;;;1.92;1.67;;;0.90;87.80;;;;;;6228820;23;20004;-85
2020/12/26 01:05:17;;;;;;;2.63;1.92;;;0.90;88.80;;;;;;6255012;23;19996;-86
2020/12/26 01:07:43;;;;;;;5.43;1.83;;;0.90;89.10;;;;;;6229095;23;20000;-86
2020/12/26 01:10:08;;;;;;;4.82;2.00;;;0.90;88.10;;;;;;6256581;23;20312;-85
2020/12/26 01:12:34;;;;;;;4.18;1.60;;;0.90;87.90;;;;;;6227377;23;20008;-85
2020/12/26 01:15:00;;;;;;;3.35;1.77;;;1.00;87.40;;;;;;6228013;23;20066;-85
2020/12/26 01:17:25;;;;;;;1.90;1.63;;;1.00;87.40;;;;;;6227080;23;20408;-85
2020/12/26 01:19:51;;;;;;;3.60;1.88;;;0.90;87.50;;;;;;6227234;23;20004;-85
2020/12/26 01:22:17;;;;;;;2.55;1.60;;;0.80;88.10;;;;;;6255059;23;20027;-85
2020/12/26 01:24:42;;;;;;;1.52;1.42;;;0.80;88.90;;;;;;6227980;23;20034;-85
2020/12/26 01:27:08;;;;;;;3.25;1.80;;;0.80;89.10;;;;;;6253837;23;20401;-85
2020/12/26 01:29:35;;;;;;;2.00;1.48;;;0.80;89.50;;;;;;6253355;23;20074;-85
2020/12/26 01:32:01;;;;;;;2.35;1.73;;;0.70;90.00;;;;;;6254207;23;20008;-85
2020/12/26 01:34:33;;;;;;;2.65;1.60;;;0.80;90.00;;;;;;6227193;23;20093;-85
2020/12/26 01:36:59;;;;;;;2.63;2.08;;;0.80;90.10;;;;;;6227852;23;20068;-85
2020/12/26 01:39:24;;;;;;;2.90;1.48;;;0.80;90.40;;;;;;6227686;23;20059;-85
2020/12/26 01:41:54;;;;;;;1.85;1.60;;;0.80;90.80;;;;;;6226459;23;20015;-85
2020/12/26 01:44:20;;;;;;;2.75;1.60;;;0.80;90.80;;;;;;6243533;23;20034;-84
2020/12/26 01:46:48;;;;;;;3.72;1.40;;;0.70;90.80;;;;;;6260698;23;20038;-84
2020/12/26 01:49:16;;;;;;;2.72;1.60;;;0.70;90.00;;;;;;6228250;23;20396;-84
2020/12/26 01:51:43;;;;;;;2.17;1.45;;;0.70;89.30;;;;;;6228375;23;20000;-84
2020/12/26 01:54:10;;;;;;;2.03;1.42;;;0.70;90.00;;;;;;6229147;23;20046;-85
2020/12/26 01:56:38;;;;;;;2.75;1.60;;;0.60;90.30;;;;;;6229765;23;20028;-85
2020/12/26 01:59:04;;;;;;;4.93;1.70;;;0.60;89.90;;;;;;6253702;23;20498;-84
2020/12/26 02:01:34;;;;;;;1.70;1.55;;;0.60;90.10;;;;;;6226657;23;19996;-84
2020/12/26 02:04:01;;;;;;;7.07;2.08;;;0.60;90.00;;;;;;6255619;23;20075;-84
2020/12/26 02:06:43;;;;;;;4.20;1.67;;;0.60;90.00;;;;;;6226441;23;20000;-84
2020/12/26 02:09:11;;;;;;;2.37;2.03;;;0.60;90.30;;;;;;6226443;23;20027;-84
2020/12/26 02:11:36;;;;;;;1.90;1.73;;;0.50;90.90;;;;;;6258616;23;20007;-84
2020/12/26 02:14:03;;;;;;;4.80;2.00;;;0.40;91.30;;;;;;6253714;23;20346;-84
2020/12/26 02:16:29;;;;;;;2.45;1.90;;;0.40;91.50;;;;;;6252153;23;20004;-85
2020/12/26 02:18:56;;;;;;;3.53;3.22;;;0.40;91.60;;;;;;6253845;23;20105;-85
2020/12/26 02:21:22;;;;;;;6.85;2.22;;;0.40;91.90;;;;;;6202504;23;20399;-85
2020/12/26 02:23:48;;;;;;;4.10;2.50;;;0.40;92.00;;;;;;6227061;23;20108;-85
2020/12/26 02:26:14;;;;;;;3.55;2.47;;;0.30;92.50;;;;;;6228304;23;20035;-85
2020/12/26 02:28:40;;;;;;;6.18;2.38;;;0.20;92.90;;;;;;6226812;23;20000;-85
2020/12/26 02:31:06;;;;;;;3.97;2.38;;;0.30;93.50;;;;;;6227565;23;20019;-86
2020/12/26 02:33:41;;;;;;;5.57;2.50;;;0.20;93.80;;;;;;6227904;23;20094;-84
2020/12/26 02:36:08;;;;;;;4.47;2.70;;;0.10;94.20;;;;;;6227827;23;20004;-84
2020/12/26 02:38:33;;;;;;;4.93;3.20;;;0.10;94.50;;;;;;6226464;23;20010;-85
2020/12/26 02:40:59;;;;;;;4.68;2.85;;;0.10;94.70;;;;;;6227163;23;20008;-85
2020/12/26 02:43:26;;;;;;;2.42;2.05;;;0.10;94.90;;;;;;6226139;23;20494;-86
2020/12/26 02:45:56;;;;;;;5.97;3.10;;;0.00;95.50;;;;;;6227419;23;20004;-87
2020/12/26 02:48:26;;;;;;;5.32;2.97;;;-0.10;96.00;;;;;;6226531;23;20007;-85
2020/12/26 02:50:52;;;;;;;3.83;2.72;;;-0.10;96.30;;;;;;6226796;23;20031;-85
2020/12/26 02:53:17;;;;;;;7.32;3.70;;;-0.10;96.40;;;;;;6254648;23;20332;-85
2020/12/26 02:55:43;;;;;;;5.70;3.10;;;-0.10;96.50;;;;;;6252896;23;20031;-85
2020/12/26 02:58:10;;;;;;;6.80;2.90;;;-0.10;96.70;;;;;;6225881;23;20018;-84
2020/12/26 03:00:36;;;;;;;4.90;2.95;;;0.00;96.90;;;;;;6228249;23;20008;-84
2020/12/26 03:03:03;;;;;;;6.45;3.53;;;0.00;96.60;;;;;;6226020;23;20408;-84
2020/12/26 03:05:28;;;;;;;5.65;3.40;;;0.10;96.70;;;;;;6253272;23;20015;-84
2020/12/26 03:07:54;;;;;;;5.78;3.63;;;0.10;96.80;;;;;;6254340;23;20000;-86
2020/12/26 03:10:20;;;;;;;4.22;3.83;;;0.00;96.90;;;;;;6225618;23;20004;-85
2020/12/26 03:12:45;;;;;;;7.43;3.75;;;0.10;97.10;;;;;;6226884;23;20159;-85
2020/12/26 03:15:11;;;;;;;4.78;3.83;;;0.00;97.40;;;;;;6227100;23;20078;-85
2020/12/26 03:17:37;;;;;;;8.32;3.97;;;0.00;97.60;;;;;;6225922;23;20015;-85
2020/12/26 03:20:06;;;;;;;6.05;3.92;;;-0.10;97.80;;;;;;6253168;23;20004;-85
2020/12/26 03:22:32;;;;;;;5.00;4.13;;;-0.10;98.10;;;;;;6253220;23;20431;-85
2020/12/26 03:24:58;;;;;;;6.40;4.32;;;-0.10;98.20;;;;;;6226741;23;20015;-85
2020/12/26 03:27:24;;;;;;;7.70;4.55;;;-0.10;98.40;;;;;;6226478;23;20000;-85
2020/12/26 03:29:51;;;;;;;7.00;4.28;;;-0.10;98.60;;;;;;6228442;23;20000;-85
2020/12/26 03:32:17;;;;;;;8.02;4.45;;;-0.10;98.60;;;;;;6226251;23;20031;-85
2020/12/26 03:34:43;;;;;;;7.57;4.57;;;-0.10;98.60;;;;;;6226229;23;20027;-85
2020/12/26 03:37:09;;;;;;;5.65;4.10;;;-0.10;98.60;;;;;;6226719;23;20352;-85
2020/12/26 03:39:35;;;;;;;7.20;4.22;;;-0.10;98.20;;;;;;6254123;23;20011;-85
2020/12/26 03:42:12;;;;;;;6.65;4.18;;;0.00;98.00;;;;;;6227284;23;20019;-85
2020/12/26 03:44:39;;;;;;;4.20;3.58;;;0.00;98.40;;;;;;6228117;23;20000;-86
2020/12/26 03:47:08;;;;;;;6.53;4.10;;;-0.10;98.20;;;;;;6236183;23;20000;-84
2020/12/26 03:49:34;;;;;;;6.70;3.83;;;-0.10;98.60;;;;;;6270354;23;20028;-85
2020/12/26 03:52:00;;;;;;;4.60;3.67;;;-0.20;98.90;;;;;;6228005;23;20008;-86
2020/12/26 03:54:26;;;;;;;7.05;4.45;;;-0.20;98.80;;;;;;6226177;23;20015;-85
2020/12/26 03:56:52;;;;;;;5.97;4.10;;;-0.30;98.80;;;;;;6227034;23;20005;-86
2020/12/26 03:59:18;;;;;;;5.45;3.88;;;-0.30;98.70;;;;;;6227325;23;20428;-85
2020/12/26 04:01:44;;;;;;;6.15;4.32;;;-0.40;99.30;;;;;;6254223;23;20035;-86
2020/12/26 04:04:13;;;;;;;5.07;3.38;;;-0.40;99.60;;;;;;6227884;23;20004;-86
2020/12/26 04:06:39;;;;;;;7.50;4.70;;;-0.50;99.60;;;;;;6236422;23;19997;-85
2020/12/26 04:09:05;;;;;;;6.40;4.40;;;-0.50;99.90;;;;;;6233826;23;20000;-85
2020/12/26 04:11:31;;;;;;;6.10;4.28;;;-0.50;99.80;;;;;;6238491;23;20015;-85
2020/12/26 04:13:56;;;;;;;4.70;3.60;;;-0.50;99.90;;;;;;6240363;23;20000;-85
2020/12/26 04:16:22;;;;;;;5.53;3.95;;;-0.60;99.90;;;;;;6260726;23;20020;-85
2020/12/26 04:18:48;;;;;;;4.93;3.53;;;-0.60;99.80;;;;;;6256418;23;20011;-85
2020/12/26 04:21:14;;;;;;;5.93;3.40;;;-0.60;99.70;;;;;;6227877;23;20012;-85
2020/12/26 04:23:40;;;;;;;6.55;3.90;;;-0.60;99.80;;;;;;6228858;23;20004;-85
2020/12/26 04:26:11;;;;;;;7.28;4.57;;;-0.60;99.70;;;;;;6229202;23;20031;-86
2020/12/26 04:28:38;;;;;;;5.60;4.35;;;-0.50;99.60;;;;;;6227445;23;20059;-84
2020/12/26 04:31:04;;;;;;;5.70;3.58;;;-0.50;99.10;;;;;;6249732;23;20328;-84
2020/12/26 04:33:29;;;;;;;13.98;5.80;;;-0.50;99.20;;;;;;6229125;23;20012;-84
2020/12/26 04:35:56;;;;;;;8.45;5.80;;;-0.50;99.50;;;;;;6229791;23;20087;-84
2020/12/26 04:38:24;;;;;;;7.95;6.05;;;-0.50;99.80;;;;;;6230349;23;20015;-83
2020/12/26 04:40:50;;;;;;;13.50;5.93;;;-0.60;99.90;;;;;;6237247;23;20031;-83
2020/12/26 04:43:16;;;;;;;8.38;5.80;;;-0.60;99.90;;;;;;6239716;23;19996;-83
2020/12/26 04:45:43;;;;;;;12.48;7.53;;;-0.60;99.90;;;;;;6237028;23;20000;-82
2020/12/26 04:48:14;;;;;;;11.27;7.15;;;-0.50;99.90;;;;;;6230354;23;20056;-84
2020/12/26 04:50:48;;;;;;;10.95;7.38;;;-0.50;99.90;;;;;;6268985;23;19984;-83
2020/12/26 04:53:16;;;;;;;12.25;7.72;;;-0.50;99.90;;;;;;6243811;23;20019;-83
2020/12/26 04:55:49;;;;;;;12.30;8.43;;;-0.60;99.90;;;;;;6270195;23;20000;-83
2020/12/26 04:58:16;;;;;;;14.57;8.70;;;-0.60;99.90;;;;;;6234306;23;20004;-84
2020/12/26 05:00:44;;;;;;;11.25;7.10;;;-0.60;99.90;;;;;;6233910;23;20008;-84
2020/12/26 05:03:17;;;;;;;15.65;9.00;;;-0.60;99.90;;;;;;6227698;23;20383;-84
2020/12/26 05:05:44;;;;;;;17.65;9.38;;;-0.70;99.90;;;;;;6230163;23;20011;-84
2020/12/26 05:08:12;;;;;;;13.85;8.50;;;-0.70;99.90;;;;;;6231045;23;20004;-84
2020/12/26 05:10:39;;;;;;;16.05;8.30;;;-0.70;99.90;;;;;;6229800;23;20000;-84
2020/12/26 05:13:07;;;;;;;16.42;8.73;;;-0.50;99.90;;;;;;6229768;23;20004;-84
2020/12/26 05:15:34;;;;;;;16.13;8.85;;;-0.50;99.80;;;;;;6230447;23;20015;-84
2020/12/26 05:18:01;;;;;;;16.13;9.48;;;-0.70;99.90;;;;;;6256858;23;20006;-84
2020/12/26 05:20:28;;;;;;;17.00;9.23;;;-0.60;99.90;;;;;;6229933;23;20034;-84
2020/12/26 05:23:12;;;;;;;12.85;8.23;;;-0.70;99.90;;;;;;6228792;23;20427;-84
2020/12/26 05:25:43;;;;;;;13.77;8.32;;;-0.60;99.90;;;;;;6228506;23;20067;-84
2020/12/26 05:28:20;;;;;;;16.00;9.48;;;-0.60;99.90;;;;;;6230203;23;20047;-84
2020/12/26 05:30:50;;;;;;;12.98;7.60;;;-0.60;99.90;;;;;;6228798;23;20010;-85
2020/12/26 05:33:22;;;;;;;12.15;7.80;;;-0.60;99.90;;;;;;6227554;23;20015;-84
2020/12/26 05:35:55;;;;;;;12.30;7.88;;;-0.70;99.90;;;;;;6256221;23;20463;-84
2020/12/26 05:38:33;;;;;;;15.73;7.95;;;-0.80;99.90;;;;;;6202194;23;20009;-85
2020/12/26 05:41:00;;;;;;;13.35;8.35;;;-0.80;99.90;;;;;;6227059;23;20148;-84
2020/12/26 05:43:29;;;;;;;13.02;7.50;;;-0.90;99.90;;;;;;6227687;23;20004;-85
2020/12/26 05:45:56;;;;;;;13.38;8.82;;;-0.90;99.90;;;;;;6224704;23;20372;-84
2020/12/26 05:48:33;;;;;;;15.25;8.10;;;-0.90;99.90;;;;;;6225419;23;20352;-84
2020/12/26 05:51:01;;;;;;;12.43;6.65;;;-0.90;99.90;;;;;;6226794;23;20042;-85
2020/12/26 05:53:28;;;;;;;11.48;6.70;;;-0.80;99.90;;;;;;6200983;23;20008;-84
2020/12/26 05:55:54;;;;;;;11.13;6.30;;;-0.80;99.90;;;;;;6228047;23;20027;-84
2020/12/26 05:58:25;;;;;;;12.10;6.63;;;-0.80;99.90;;;;;;6226603;23;20050;-84
2020/12/26 06:00:52;;;;;;;10.52;6.55;;;-0.80;99.90;;;;;;6226479;23;20058;-84
2020/12/26 06:03:34;;;;;;;9.93;6.03;;;-0.80;99.90;;;;;;6227151;23;20004;-84
2020/12/26 06:06:02;;;;;;;9.32;5.78;;;-0.80;99.90;;;;;;6225812;23;20004;-85
2020/12/26 06:08:29;;;;;;;11.02;6.38;;;-0.70;99.90;;;;;;6200623;23;20004;-85
2020/12/26 06:11:00;;;;;;;8.18;5.43;;;-0.70;99.80;;;;;;6226431;23;20000;-84
2020/12/26 06:13:28;;;;;;;12.65;6.93;;;-0.80;99.90;;;;;;6225048;23;20034;-84
2020/12/26 06:16:07;;;;;;;9.15;5.85;;;-0.70;99.90;;;;;;6225666;23;20004;-84
2020/12/26 06:19:05;;;;;;;10.13;6.43;;;-0.70;99.90;;;;;;6225879;23;20063;-84
2020/12/26 06:21:31;;;;;;;9.15;5.65;;;-0.70;99.30;;;;;;6195522;23;20050;-84
2020/12/26 06:23:58;;;;;;;9.55;6.00;;;-0.70;99.80;;;;;;6229797;23;20000;-85
2020/12/26 06:26:34;;;;;;;10.35;6.18;;;-0.70;99.60;;;;;;6229491;23;20428;-85
2020/12/26 06:29:03;;;;;;;9.75;6.60;;;-0.70;99.50;;;;;;6230545;23;20062;-85
2020/12/26 06:31:29;;;;;;;14.07;6.32;;;-0.70;99.80;;;;;;6232303;23;20001;-85
2020/12/26 06:33:55;;;;;;;10.55;6.72;;;-0.70;99.30;;;;;;6232869;23;20015;-82
2020/12/26 06:36:21;;;;;;;8.43;5.88;;;-0.70;99.30;;;;;;6266980;23;20482;-83
2020/12/26 06:38:49;;;;;;;8.23;5.50;;;-0.70;99.10;;;;;;6235785;23;20004;-84
2020/12/26 06:41:19;;;;;;;9.82;5.70;;;-0.70;99.10;;;;;;6228282;23;20004;-84
2020/12/26 06:43:49;;;;;;;8.30;5.57;;;-0.80;98.90;;;;;;6227401;23;20012;-84
2020/12/26 06:46:21;;;;;;;8.80;5.90;;;-0.70;99.00;;;;;;6263030;22;20027;-83
2020/12/26 06:48:57;;;;;;;8.00;5.63;;;-0.70;99.00;;;;;;6244563;23;19988;-85
2020/12/26 06:51:28;;;;;;;9.55;5.80;;;-0.70;98.90;;;;;;6228976;23;20099;-84
2020/12/26 06:53:58;;;;;;;7.72;5.22;;;-0.70;98.20;;;;;;6227105;23;20011;-81
2020/12/26 06:56:35;;;;;;;7.15;4.82;;;-0.70;98.30;;;;;;6248441;23;20011;-80
2020/12/26 06:59:11;;;;;;;6.13;4.38;;;-0.60;98.40;;;;;;6250174;23;20344;-80
2020/12/26 07:01:38;;;;;;;8.55;4.78;;;-0.60;97.70;;;;;;6222815;23;20073;-80
2020/12/26 07:04:07;;;;;;;8.10;4.95;;;-0.60;97.50;;;;;;6221818;23;20000;-79
2020/12/26 07:06:50;;;;;;;7.80;4.68;;;-0.60;96.40;;;;;;6220587;23;20042;-79
2020/12/26 07:09:34;;;;;;;8.50;4.65;;;-0.60;96.60;;;;;;6247125;23;20067;-79
2020/12/26 07:12:00;;;;;;;7.45;5.07;;;-0.60;96.60;;;;;;6219541;23;20434;-78
2020/12/26 07:14:33;;;;;;;8.13;5.10;;;-0.60;96.60;;;;;;6246348;23;20004;-78
2020/12/26 07:17:02;;;;;;;;;;;-0.60;96.00;;;;;;6247013;23;20066;-78
2020/12/26 07:19:37;;;;;;;6.85;4.13;;;-0.60;96.30;;;;;;6247530;23;19904;-79
2020/12/26 07:22:28;;;;;;;7.78;4.70;;;-0.70;96.60;;;;;;6247650;23;20359;-78
2020/12/26 07:24:56;;;;;;;11.50;4.82;;;-0.60;96.40;;;;;;6224429;23;20011;-77
2020/12/26 07:27:39;;;;;;;7.43;3.92;;;-0.60;96.20;;;;;;6233583;23;20000;-80
2020/12/26 07:30:04;;;;;;;7.57;4.90;;;-0.60;96.60;;;;;;6232214;23;20031;-78
2020/12/26 07:32:39;;;;;;;11.40;4.60;;;-0.50;96.40;;;;;;6249757;23;20000;-79
2020/12/26 07:35:28;;;;;;;8.45;5.28;;;-0.50;96.20;;;;;;6249252;23;20004;-79
2020/12/26 07:37:53;;;;;;;9.20;5.07;;;-0.40;96.50;;;;;;6228441;23;20087;-79
2020/12/26 07:40:24;;;;;;;10.80;5.72;;;-0.50;96.60;;;;;;6220946;23;20019;-79
2020/12/26 07:42:50;;;;;;;9.05;5.18;;;-0.60;96.90;;;;;;6248715;23;20004;-79
2020/12/26 07:45:28;;;;;;;8.05;5.13;;;-0.60;97.30;;;;;;6247814;23;20007;-79
2020/12/26 07:47:55;;;;;;;7.10;4.82;;;-0.60;97.30;;;;;;6248581;23;20000;-79
2020/12/26 07:50:27;;;;;;;7.03;4.65;;;-0.60;97.20;;;;;;6223127;23;20000;-78
2020/12/26 07:52:54;;;;;;;8.45;5.00;;;-0.60;96.40;;;;;;6220024;23;20341;-78
2020/12/26 07:55:20;;;;;;;7.07;4.78;;;-0.60;96.60;;;;;;6249809;23;20008;-78
2020/12/26 07:57:47;;;;;;;9.55;5.18;;;-0.50;97.10;;;;;;6219982;23;20023;-78
2020/12/26 08:00:25;;;;;;;9.40;5.25;;;-0.50;96.70;;;;;;6220093;23;20087;-78
2020/12/26 08:02:52;;;;;;;6.53;5.10;;;-0.50;96.80;;;;;;6229925;23;20008;-78
2020/12/26 08:05:19;;;;;;;7.22;4.75;;;-0.40;96.80;;;;;;6226937;23;20391;-78
2020/12/26 08:07:45;;;;;;;6.13;4.50;;;-0.30;95.90;;;;;;6218052;23;20027;-77
2020/12/26 08:10:14;;;;;;;7.80;4.78;;;-0.40;95.50;;;;;;6220244;23;20007;-77
2020/12/26 08:12:57;;;;;;;7.03;4.70;;;-0.30;94.70;;;;;;6249440;23;20030;-79
2020/12/26 08:15:26;;;;;;;9.40;5.40;;;-0.20;94.30;;;;;;6223846;23;20016;-78
2020/12/26 08:17:56;;;;;;;8.88;5.70;;;-0.20;94.20;;;;;;6249003;23;20004;-77
2020/12/26 08:20:23;;;;;;;10.55;5.18;;;-0.20;94.70;;;;;;6250067;23;20067;-78
2020/12/26 08:22:50;;;;;;;7.50;3.85;;;-0.10;94.50;;;;;;6249043;23;20023;-78
2020/12/26 08:25:18;;;;;;;5.93;3.95;;;-0.10;93.90;;;;;;6250163;23;19996;-80
2020/12/26 08:27:45;;;;;;;5.60;3.75;;;0.00;92.30;;;;;;6222827;23;20457;-80
2020/12/26 08:30:14;;;;;;;7.57;3.40;;;0.00;91.80;;;;;;6248505;23;19996;-78
2020/12/26 08:33:20;;;;;;;7.85;3.45;;;0.10;90.90;;;;;;6248560;23;20004;-78
2020/12/26 08:36:27;;;;;;;6.18;2.85;;;0.10;89.60;;;;;;6247263;23;20004;-78
2020/12/26 08:38:57;;;;;;;4.65;2.63;;;0.10;87.50;;;;;;6220028;23;20004;-79
2020/12/26 08:41:24;;;;;;;1.77;1.45;;;0.20;85.10;;;;;;6219654;23;20008;-78
2020/12/26 08:43:50;;;;;;;3.92;1.67;;;0.10;80.80;;;;;;6246486;23;19996;-77
2020/12/26 08:46:23;;;;;;;4.90;1.92;;;0.10;77.90;;;;;;6219895;23;20058;-77
2020/12/26 08:48:49;;;;;;;6.28;1.70;;;0.10;77.10;;;;;;6247323;23;20072;-78
2020/12/26 08:51:24;;;;;;;3.40;2.05;;;0.10;76.70;;;;;;6246325;23;20007;-77
2020/12/26 08:53:51;;;;;;;3.30;1.67;;;0.10;77.00;;;;;;6219592;23;20008;-79
2020/12/26 08:56:34;;;;;;;2.50;1.50;;;0.10;76.70;;;;;;6245856;23;20000;-77
2020/12/26 08:59:00;;;;;;;2.47;1.85;;;0.20;75.50;;;;;;6220779;23;20019;-78
2020/12/26 09:01:26;;;;;;;2.75;1.48;;;0.30;76.20;;;;;;6221340;23;20008;-78
2020/12/26 09:03:51;;;;;;;1.83;1.17;;;0.60;76.20;;;;;;6222162;23;20039;-80
2020/12/26 09:06:28;;;;;;;2.60;1.38;;;0.60;72.90;;;;;;6249083;23;20281;-80
2020/12/26 09:08:54;;;;;;;1.70;1.20;;;0.60;71.00;;;;;;6224730;23;20007;-79
2020/12/26 09:11:28;;;;;;;3.30;1.75;;;0.70;69.20;;;;;;6230368;23;20019;-80
2020/12/26 09:13:54;;;;;;;2.17;1.35;;;0.70;70.30;;;;;;6251969;23;20004;-81
2020/12/26 09:16:20;;;;;;;1.85;1.38;;;0.70;70.70;;;;;;6225094;23;20470;-80
2020/12/26 09:18:48;;;;;;;4.53;1.52;;;0.70;70.40;;;;;;6252843;23;20468;-80
2020/12/26 09:21:21;;;;;;;2.80;1.60;;;0.80;70.90;;;;;;6253666;23;20001;-78
2020/12/26 09:23:48;;;;;;;6.32;2.08;;;0.80;70.80;;;;;;6267819;23;20182;-77
2020/12/26 09:26:14;;;;;;;2.03;1.40;;;0.80;71.30;;;;;;6270115;23;20050;-77
2020/12/26 09:28:56;;;;;;;1.95;1.40;;;0.80;71.50;;;;;;6235332;23;20023;-79
2020/12/26 09:31:30;;;;;;;4.60;2.90;;;0.70;70.10;;;;;;6222943;23;20000;-80
2020/12/26 09:33:58;;;;;;;2.70;2.35;;;0.60;70.50;;;;;;6222120;23;20078;-79
2020/12/26 09:36:26;;;;;;;3.78;2.15;;;0.50;70.90;;;;;;6248068;23;20341;-79
2020/12/26 09:38:53;;;;;;;3.58;1.70;;;0.60;71.50;;;;;;6223410;23;20011;-79
2020/12/26 09:41:26;;;;;;;2.05;1.35;;;0.50;69.50;;;;;;6248256;23;20031;-80
2020/12/26 09:43:53;;;;;;;3.38;1.50;;;0.40;68.40;;;;;;6220757;23;20392;-79
2020/12/26 09:46:19;;;;;;;2.83;1.60;;;0.50;69.20;;;;;;6247415;23;20444;-79
2020/12/26 09:48:46;;;;;;;1.60;1.10;;;0.50;70.00;;;;;;6247728;23;20004;-78
2020/12/26 09:51:20;;;;;;;2.97;1.38;;;0.70;70.90;;;;;;6223444;23;20028;-78
2020/12/26 09:53:46;;;;;;;5.68;1.65;;;0.70;70.80;;;;;;6224055;23;20035;-79
2020/12/26 09:56:12;;;;;;;2.55;1.40;;;0.60;70.10;;;;;;6250731;23;19996;-79
2020/12/26 09:58:39;;;;;;;3.13;1.00;;;0.50;70.10;;;;;;6222181;23;20004;-78
2020/12/26 10:01:05;;;;;;;1.60;1.13;;;0.60;69.60;;;;;;6249833;23;20035;-78
2020/12/26 10:03:30;;;;;;;4.18;1.08;;;0.50;68.40;;;;;;6250669;23;20010;-78
2020/12/26 10:05:56;;;;;;;6.13;1.30;;;0.50;68.40;;;;;;6247867;23;20433;-79
2020/12/26 10:08:22;;;;;;;2.58;1.10;;;0.60;68.20;;;;;;6219753;23;20304;-79
2020/12/26 10:10:47;;;;;;;2.78;1.30;;;0.70;68.40;;;;;;6221189;23;20451;-79
2020/12/26 10:13:13;;;;;;;3.10;1.15;;;0.80;67.80;;;;;;6220201;23;20011;-78
2020/12/26 10:15:39;;;;;;;1.13;0.60;;;0.80;67.10;;;;;;6247203;23;20343;-79
2020/12/26 10:18:04;;;;;;;3.22;0.65;;;0.90;67.20;;;;;;6247730;23;20494;-79
2020/12/26 10:20:30;;;;;;;1.77;1.27;;;1.00;67.00;;;;;;6247173;23;20095;-79
2020/12/26 10:22:56;;;;;;;2.50;1.00;;;1.00;65.70;;;;;;6222025;23;20004;-77
2020/12/26 10:25:24;;;;;;;1.23;0.75;;;1.00;65.50;;;;;;6221444;23;20340;-78
2020/12/26 10:27:54;;;;;;;3.25;0.85;;;1.00;66.00;;;;;;6247275;23;20106;-79
2020/12/26 10:30:20;;;;;;;1.48;1.15;;;1.00;66.10;;;;;;6221048;23;20008;-78
2020/12/26 10:32:46;;;;;;;1.00;0.60;;;1.10;66.80;;;;;;6220155;23;20032;-79
2020/12/26 10:35:12;;;;;;;1.73;1.25;;;1.00;66.00;;;;;;6248240;23;20000;-79
2020/12/26 10:37:38;;;;;;;2.55;1.10;;;1.20;66.20;;;;;;6248145;23;20428;-79
2020/12/26 10:40:07;;;;;;;1.80;0.98;;;1.30;66.80;;;;;;6251953;23;20019;-78
2020/12/26 10:42:33;;;;;;;3.00;0.93;;;1.40;67.00;;;;;;6249596;23;20050;-78
2020/12/26 10:44:58;;;;;;;2.00;1.77;;;1.40;65.90;;;;;;6221337;23;20075;-79
2020/12/26 10:47:24;;;;;;;4.03;1.80;;;1.40;67.30;;;;;;6247231;23;20067;-79
2020/12/26 10:49:50;;;;;;;3.13;1.75;;;1.50;68.10;;;;;;6221049;23;20387;-78
2020/12/26 10:52:16;;;;;;;2.83;1.30;;;1.40;69.80;;;;;;6248168;23;20066;-79
2020/12/26 10:54:41;;;;;;;2.80;1.75;;;1.50;70.50;;;;;;6220273;23;20043;-79
2020/12/26 10:57:07;;;;;;;2.97;1.48;;;1.60;70.90;;;;;;6246862;23;20067;-78
2020/12/26 10:59:33;;;;;;;3.67;1.88;;;1.60;69.40;;;;;;6247247;23;20131;-79
2020/12/26 11:01:58;;;;;;;3.05;1.52;;;1.50;69.30;;;;;;6247724;23;20004;-79
2020/12/26 11:04:24;;;;;;;5.95;1.85;;;1.50;70.00;;;;;;6247603;23;20001;-78
2020/12/26 11:06:50;;;;;;;4.20;2.25;;;1.60;69.90;;;;;;6246910;23;20034;-79
2020/12/26 11:09:17;;;;;;;3.55;1.60;;;1.70;69.80;;;;;;6246474;23;20046;-79
2020/12/26 11:11:50;;;;;;;5.32;1.73;;;1.90;70.60;;;;;;6219846;23;20047;-78
2020/12/26 11:14:16;;;;;;;6.68;1.27;;;2.00;69.10;;;;;;6220815;23;20362;-79
2020/12/26 11:16:52;;;;;;;2.22;1.42;;;2.00;67.80;;;;;;6251289;23;20000;-78
2020/12/26 11:19:18;;;;;;;2.20;1.00;;;1.90;68.00;;;;;;6251226;23;20051;-79
2020/12/26 11:21:44;;;;;;;3.30;1.00;;;2.00;67.50;;;;;;6246351;23;20004;-79
2020/12/26 11:24:12;;;;;;;5.22;1.70;;;2.20;67.70;;;;;;6246578;23;20000;-80
2020/12/26 11:26:38;;;;;;;2.95;1.67;;;2.30;66.90;;;;;;6247017;23;20000;-79
2020/12/26 11:29:04;;;;;;;3.15;1.40;;;2.30;66.30;;;;;;6246508;23;20004;-80
2020/12/26 11:31:30;;;;;;;4.28;1.30;;;2.10;64.90;;;;;;6246267;23;20004;-80
2020/12/26 11:33:55;;;;;;;1.73;1.17;;;2.00;64.60;;;;;;6246570;23;20006;-80
2020/12/26 11:36:27;;;;;;;2.85;1.52;;;1.80;65.30;;;;;;6246830;23;20697;-80
2020/12/26 11:38:54;;;;;;;7.87;2.97;;;1.70;66.00;;;;;;6246836;23;20373;-79
2020/12/26 11:41:23;;;;;;;2.38;1.38;;;1.60;65.90;;;;;;6246917;23;20023;-77
2020/12/26 11:43:49;;;;;;;1.90;1.80;;;1.70;66.30;;;;;;6219485;23;20050;-79
2020/12/26 11:46:15;;;;;;;2.22;1.63;;;1.70;66.60;;;;;;6220495;23;20002;-78
2020/12/26 11:48:42;;;;;;;2.78;1.50;;;1.70;67.40;;;;;;6220260;23;20000;-79
2020/12/26 11:51:09;;;;;;;2.03;1.30;;;1.70;66.70;;;;;;6249749;23;20277;-77
2020/12/26 11:53:35;;;;;;;4.63;1.80;;;1.60;66.90;;;;;;6265554;23;19999;-80
2020/12/26 11:56:06;;;;;;;3.60;1.88;;;1.60;67.60;;;;;;6224190;23;20004;-79
2020/12/26 11:58:31;;;;;;;2.25;1.40;;;1.90;67.40;;;;;;6248753;23;20379;-77
2020/12/26 12:00:57;;;;;;;7.13;1.98;;;1.90;67.30;;;;;;6250788;23;20008;-78
2020/12/26 12:03:22;;;;;;;3.20;1.77;;;1.80;67.40;;;;;;6247086;23;20007;-79
2020/12/26 12:05:48;;;;;;;2.72;1.92;;;1.90;67.90;;;;;;6247123;23;20000;-80
2020/12/26 12:08:14;;;;;;;3.03;1.63;;;2.00;67.70;;;;;;6247006;23;20003;-79
2020/12/26 12:10:40;;;;;;;1.90;1.30;;;2.10;66.70;;;;;;6222650;23;20004;-78
2020/12/26 12:13:07;;;;;;;2.25;1.40;;;2.10;64.90;;;;;;6246777;23;20063;-78
2020/12/26 12:15:34;;;;;;;4.60;1.75;;;2.00;65.10;;;;;;6246593;23;20081;-77
2020/12/26 12:18:00;;;;;;;5.28;1.67;;;1.70;65.30;;;;;;6245703;23;20346;-79
2020/12/26 12:20:31;;;;;;;2.97;1.50;;;1.60;66.30;;;;;;6219343;23;20019;-79
2020/12/26 12:22:58;;;;;;;3.80;1.88;;;1.80;66.70;;;;;;6222666;23;20008;-79
2020/12/26 12:25:24;;;;;;;2.53;1.50;;;2.00;66.90;;;;;;6246327;23;20007;-79
2020/12/26 12:27:50;;;;;;;2.60;1.50;;;2.10;65.80;;;;;;6245624;23;20026;-78
2020/12/26 12:30:16;;;;;;;8.10;2.10;;;1.90;66.20;;;;;;6220592;23;20005;-79
2020/12/26 12:32:42;;;;;;;2.83;1.52;;;1.80;66.60;;;;;;6252360;23;20038;-81
2020/12/26 12:35:08;;;;;;;2.70;1.70;;;1.80;66.30;;;;;;6248725;23;20031;-80
2020/12/26 12:37:34;;;;;;;2.78;1.75;;;2.00;65.90;;;;;;6247007;23;20004;-80
2020/12/26 12:40:00;;;;;;;1.77;1.17;;;2.50;65.10;;;;;;6219000;23;20023;-81
2020/12/26 12:42:29;;;;;;;5.55;1.40;;;3.20;63.60;;;;;;6246418;23;20064;-80
2020/12/26 12:44:56;;;;;;;5.18;1.30;;;4.10;59.80;;;;;;6246924;23;20476;-81
2020/12/26 12:47:26;;;;;;;2.50;1.35;;;4.50;58.70;;;;;;6218301;23;20008;-81
2020/12/26 12:49:52;;;;;;;2.05;1.20;;;4.90;56.40;;;;;;6245952;23;20000;-81
2020/12/26 12:52:18;;;;;;;1.35;0.85;;;4.70;55.10;;;;;;6246771;23;20067;-81
2020/12/26 12:54:44;;;;;;;4.75;1.30;;;4.20;55.20;;;;;;6245757;23;20000;-81
2020/12/26 12:57:10;;;;;;;0.93;0.93;;;3.90;56.20;;;;;;6247754;23;20036;-80
2020/12/26 12:59:38;;;;;;;2.20;1.25;;;3.70;57.40;;;;;;6248539;23;20065;-80